Laverton, Australia
Current Conditions -  °F | °C
As of 5:30 AM on Wednesday 22 Oct 2014 (Local Time) from YPKG Reporting Station
Clear Clear  
Wind Chill: 59°   Ceiling: Unl
Heat Index: 59°   Visibility: NA
Dew Point: 52°   Wind: 13mph
Humidity: 77%   Direction: 80°E
Pressure: 30.15"   Gusts: NA
Location:  28.63°S, 122.4°E
Report Text: YPKG 212130Z AUTO 08011KT //// // NCD 15/11 Q1021
Loading
Personal Weather Stations






























Interactive Weather Map
Tropical Storm Tracking
New forecast layout! Learn more

10-Day Weather Forecast

Advertisements
Track Severe Weather on mobile